sensor_id;sensor_type;location;lat;lon;timestamp;P1;durP1;ratioP1;P2;durP2;ratioP2
23632;SDS011;11993;48.748;9.166;2023-04-25T00:02:04;2.00;;;1.35;;
23632;SDS011;11993;48.748;9.166;2023-04-25T00:04:30;3.53;;;1.48;;
23632;SDS011;11993;48.748;9.166;2023-04-25T00:06:58;3.05;;;1.40;;
23632;SDS011;11993;48.748;9.166;2023-04-25T00:09:26;4.32;;;1.83;;
23632;SDS011;11993;48.748;9.166;2023-04-25T00:11:52;2.45;;;1.27;;
23632;SDS011;11993;48.748;9.166;2023-04-25T00:14:18;3.38;;;1.25;;
23632;SDS011;11993;48.748;9.166;2023-04-25T00:16:43;2.00;;;1.55;;
23632;SDS011;11993;48.748;9.166;2023-04-25T00:19:09;3.13;;;1.35;;
23632;SDS011;11993;48.748;9.166;2023-04-25T00:21:35;1.38;;;1.17;;
23632;SDS011;11993;48.748;9.166;2023-04-25T00:24:05;5.60;;;1.50;;
23632;SDS011;11993;48.748;9.166;2023-04-25T00:26:31;3.78;;;1.50;;
23632;SDS011;11993;48.748;9.166;2023-04-25T00:28:58;2.33;;;1.50;;
23632;SDS011;11993;48.748;9.166;2023-04-25T00:31:23;2.75;;;1.63;;
23632;SDS011;11993;48.748;9.166;2023-04-25T00:33:49;2.63;;;1.40;;
23632;SDS011;11993;48.748;9.166;2023-04-25T00:36:15;2.97;;;1.50;;
23632;SDS011;11993;48.748;9.166;2023-04-25T00:38:40;2.08;;;1.60;;
23632;SDS011;11993;48.748;9.166;2023-04-25T00:41:07;1.88;;;1.38;;
23632;SDS011;11993;48.748;9.166;2023-04-25T00:43:32;2.88;;;1.52;;
23632;SDS011;11993;48.748;9.166;2023-04-25T00:45:59;1.63;;;1.50;;
23632;SDS011;11993;48.748;9.166;2023-04-25T00:48:25;2.13;;;1.50;;
23632;SDS011;11993;48.748;9.166;2023-04-25T00:50:53;4.10;;;1.92;;
23632;SDS011;11993;48.748;9.166;2023-04-25T00:53:20;2.33;;;1.70;;
23632;SDS011;11993;48.748;9.166;2023-04-25T00:55:46;2.05;;;1.65;;
23632;SDS011;11993;48.748;9.166;2023-04-25T00:58:12;3.13;;;1.80;;
23632;SDS011;11993;48.748;9.166;2023-04-25T01:00:39;2.67;;;1.88;;
23632;SDS011;11993;48.748;9.166;2023-04-25T01:03:06;3.17;;;1.85;;
23632;SDS011;11993;48.748;9.166;2023-04-25T01:05:31;3.67;;;2.30;;
23632;SDS011;11993;48.748;9.166;2023-04-25T01:07:57;3.75;;;2.42;;
23632;SDS011;11993;48.748;9.166;2023-04-25T01:10:24;3.70;;;2.10;;
23632;SDS011;11993;48.748;9.166;2023-04-25T01:12:49;4.45;;;1.92;;
23632;SDS011;11993;48.748;9.166;2023-04-25T01:15:15;3.13;;;2.50;;
23632;SDS011;11993;48.748;9.166;2023-04-25T01:17:41;5.65;;;1.95;;
23632;SDS011;11993;48.748;9.166;2023-04-25T01:20:07;3.13;;;1.80;;
23632;SDS011;11993;48.748;9.166;2023-04-25T01:22:34;6.50;;;2.00;;
23632;SDS011;11993;48.748;9.166;2023-04-25T01:25:00;5.10;;;2.20;;
23632;SDS011;11993;48.748;9.166;2023-04-25T01:27:26;2.60;;;1.92;;
23632;SDS011;11993;48.748;9.166;2023-04-25T01:29:53;3.70;;;2.28;;
23632;SDS011;11993;48.748;9.166;2023-04-25T01:32:19;3.65;;;2.25;;
23632;SDS011;11993;48.748;9.166;2023-04-25T01:34:47;6.63;;;2.28;;
23632;SDS011;11993;48.748;9.166;2023-04-25T01:37:12;4.53;;;2.28;;
23632;SDS011;11993;48.748;9.166;2023-04-25T01:39:38;5.43;;;2.28;;
23632;SDS011;11993;48.748;9.166;2023-04-25T01:42:04;4.88;;;1.95;;
23632;SDS011;11993;48.748;9.166;2023-04-25T01:44:29;4.68;;;2.08;;
23632;SDS011;11993;48.748;9.166;2023-04-25T01:46:55;3.47;;;1.80;;
23632;SDS011;11993;48.748;9.166;2023-04-25T01:49:21;2.53;;;1.88;;
23632;SDS011;11993;48.748;9.166;2023-04-25T01:51:46;2.47;;;1.77;;
23632;SDS011;11993;48.748;9.166;2023-04-25T01:54:12;3.90;;;2.08;;
23632;SDS011;11993;48.748;9.166;2023-04-25T01:56:38;2.80;;;1.90;;
23632;SDS011;11993;48.748;9.166;2023-04-25T01:59:05;4.03;;;1.95;;
23632;SDS011;11993;48.748;9.166;2023-04-25T02:01:31;8.00;;;2.45;;
23632;SDS011;11993;48.748;9.166;2023-04-25T02:03:57;8.07;;;2.20;;
23632;SDS011;11993;48.748;9.166;2023-04-25T02:06:22;3.47;;;2.70;;
23632;SDS011;11993;48.748;9.166;2023-04-25T02:08:48;3.15;;;2.40;;
23632;SDS011;11993;48.748;9.166;2023-04-25T02:11:13;4.00;;;2.22;;
23632;SDS011;11993;48.748;9.166;2023-04-25T02:13:39;5.60;;;2.40;;
23632;SDS011;11993;48.748;9.166;2023-04-25T02:16:05;4.72;;;2.05;;
23632;SDS011;11993;48.748;9.166;2023-04-25T02:18:30;7.55;;;2.17;;
23632;SDS011;11993;48.748;9.166;2023-04-25T02:20:56;3.38;;;1.98;;
23632;SDS011;11993;48.748;9.166;2023-04-25T02:23:22;3.45;;;2.05;;
23632;SDS011;11993;48.748;9.166;2023-04-25T02:25:48;4.88;;;1.95;;
23632;SDS011;11993;48.748;9.166;2023-04-25T02:28:14;2.80;;;1.80;;
23632;SDS011;11993;48.748;9.166;2023-04-25T02:30:39;4.47;;;1.80;;
23632;SDS011;11993;48.748;9.166;2023-04-25T02:33:05;1.98;;;1.50;;
23632;SDS011;11993;48.748;9.166;2023-04-25T02:35:31;5.43;;;2.75;;
23632;SDS011;11993;48.748;9.166;2023-04-25T02:37:56;4.60;;;3.38;;
23632;SDS011;11993;48.748;9.166;2023-04-25T02:40:22;6.18;;;3.72;;
23632;SDS011;11993;48.748;9.166;2023-04-25T02:42:47;4.20;;;2.13;;
23632;SDS011;11993;48.748;9.166;2023-04-25T02:45:13;3.97;;;2.08;;
23632;SDS011;11993;48.748;9.166;2023-04-25T02:47:39;5.63;;;3.28;;
23632;SDS011;11993;48.748;9.166;2023-04-25T02:50:05;4.47;;;1.77;;
23632;SDS011;11993;48.748;9.166;2023-04-25T02:52:31;2.83;;;1.90;;
23632;SDS011;11993;48.748;9.166;2023-04-25T02:54:56;3.25;;;1.85;;
23632;SDS011;11993;48.748;9.166;2023-04-25T02:57:22;2.78;;;1.67;;
23632;SDS011;11993;48.748;9.166;2023-04-25T02:59:47;3.50;;;1.77;;
23632;SDS011;11993;48.748;9.166;2023-04-25T03:02:13;3.78;;;1.80;;
23632;SDS011;11993;48.748;9.166;2023-04-25T03:04:39;5.38;;;1.98;;
23632;SDS011;11993;48.748;9.166;2023-04-25T03:07:04;3.42;;;1.73;;
23632;SDS011;11993;48.748;9.166;2023-04-25T03:09:30;2.72;;;1.67;;
23632;SDS011;11993;48.748;9.166;2023-04-25T03:11:56;2.28;;;1.77;;
23632;SDS011;11993;48.748;9.166;2023-04-25T03:14:21;5.72;;;1.98;;
23632;SDS011;11993;48.748;9.166;2023-04-25T03:16:47;3.25;;;1.65;;
23632;SDS011;11993;48.748;9.166;2023-04-25T03:19:12;2.40;;;1.60;;
23632;SDS011;11993;48.748;9.166;2023-04-25T03:21:40;3.25;;;1.90;;
23632;SDS011;11993;48.748;9.166;2023-04-25T03:24:06;4.63;;;1.63;;
23632;SDS011;11993;48.748;9.166;2023-04-25T03:26:32;3.88;;;1.85;;
23632;SDS011;11993;48.748;9.166;2023-04-25T03:28:57;3.50;;;1.73;;
23632;SDS011;11993;48.748;9.166;2023-04-25T03:31:23;4.60;;;1.65;;
23632;SDS011;11993;48.748;9.166;2023-04-25T03:33:48;3.72;;;1.83;;
23632;SDS011;11993;48.748;9.166;2023-04-25T03:36:14;4.75;;;1.70;;
23632;SDS011;11993;48.748;9.166;2023-04-25T03:38:40;1.95;;;1.58;;
23632;SDS011;11993;48.748;9.166;2023-04-25T03:41:07;2.45;;;1.50;;
23632;SDS011;11993;48.748;9.166;2023-04-25T03:43:32;5.35;;;2.05;;
23632;SDS011;11993;48.748;9.166;2023-04-25T03:45:58;3.55;;;2.03;;
23632;SDS011;11993;48.748;9.166;2023-04-25T03:48:24;3.50;;;1.73;;
23632;SDS011;11993;48.748;9.166;2023-04-25T03:50:51;3.67;;;1.90;;
23632;SDS011;11993;48.748;9.166;2023-04-25T03:53:17;7.28;;;2.20;;
23632;SDS011;11993;48.748;9.166;2023-04-25T03:55:42;4.00;;;2.15;;
23632;SDS011;11993;48.748;9.166;2023-04-25T03:58:08;4.28;;;1.88;;
23632;SDS011;11993;48.748;9.166;2023-04-25T04:00:34;10.55;;;2.10;;
23632;SDS011;11993;48.748;9.166;2023-04-25T04:03:00;4.55;;;2.40;;
23632;SDS011;11993;48.748;9.166;2023-04-25T04:05:25;3.03;;;1.90;;
23632;SDS011;11993;48.748;9.166;2023-04-25T04:07:52;7.10;;;2.30;;
23632;SDS011;11993;48.748;9.166;2023-04-25T04:10:18;3.70;;;2.30;;
23632;SDS011;11993;48.748;9.166;2023-04-25T04:12:43;3.53;;;2.08;;
23632;SDS011;11993;48.748;9.166;2023-04-25T04:15:09;3.83;;;2.08;;
23632;SDS011;11993;48.748;9.166;2023-04-25T04:17:35;3.50;;;2.13;;
23632;SDS011;11993;48.748;9.166;2023-04-25T04:20:01;6.47;;;2.25;;
23632;SDS011;11993;48.748;9.166;2023-04-25T04:22:28;5.70;;;2.60;;
23632;SDS011;11993;48.748;9.166;2023-04-25T04:24:53;5.68;;;2.30;;
23632;SDS011;11993;48.748;9.166;2023-04-25T04:27:19;3.53;;;2.17;;
23632;SDS011;11993;48.748;9.166;2023-04-25T04:29:46;4.47;;;2.80;;
23632;SDS011;11993;48.748;9.166;2023-04-25T04:32:12;5.25;;;2.58;;
23632;SDS011;11993;48.748;9.166;2023-04-25T04:34:39;4.53;;;2.50;;
23632;SDS011;11993;48.748;9.166;2023-04-25T04:37:06;5.53;;;2.70;;
23632;SDS011;11993;48.748;9.166;2023-04-25T04:39:32;7.15;;;2.88;;
23632;SDS011;11993;48.748;9.166;2023-04-25T04:41:58;3.97;;;2.45;;
23632;SDS011;11993;48.748;9.166;2023-04-25T04:44:26;3.22;;;2.20;;
23632;SDS011;11993;48.748;9.166;2023-04-25T04:46:52;8.82;;;2.38;;
23632;SDS011;11993;48.748;9.166;2023-04-25T04:49:17;4.80;;;2.65;;
23632;SDS011;11993;48.748;9.166;2023-04-25T04:51:43;7.53;;;2.80;;
23632;SDS011;11993;48.748;9.166;2023-04-25T04:54:12;9.20;;;6.32;;
23632;SDS011;11993;48.748;9.166;2023-04-25T04:56:37;5.20;;;3.65;;
23632;SDS011;11993;48.748;9.166;2023-04-25T04:59:03;6.63;;;3.13;;
23632;SDS011;11993;48.748;9.166;2023-04-25T05:01:29;4.72;;;2.72;;
23632;SDS011;11993;48.748;9.166;2023-04-25T05:03:57;7.28;;;2.83;;
23632;SDS011;11993;48.748;9.166;2023-04-25T05:06:26;5.57;;;2.35;;
23632;SDS011;11993;48.748;9.166;2023-04-25T05:08:54;8.70;;;3.58;;
23632;SDS011;11993;48.748;9.166;2023-04-25T05:11:19;8.10;;;2.80;;
23632;SDS011;11993;48.748;9.166;2023-04-25T05:13:45;4.38;;;2.40;;
23632;SDS011;11993;48.748;9.166;2023-04-25T05:16:11;4.32;;;2.55;;
23632;SDS011;11993;48.748;9.166;2023-04-25T05:18:38;5.07;;;3.00;;
23632;SDS011;11993;48.748;9.166;2023-04-25T05:21:04;5.65;;;2.90;;
23632;SDS011;11993;48.748;9.166;2023-04-25T05:23:30;8.27;;;2.90;;
23632;SDS011;11993;48.748;9.166;2023-04-25T05:25:57;3.53;;;2.50;;
23632;SDS011;11993;48.748;9.166;2023-04-25T05:28:22;8.23;;;3.08;;
23632;SDS011;11993;48.748;9.166;2023-04-25T05:30:49;6.82;;;3.10;;
23632;SDS011;11993;48.748;9.166;2023-04-25T05:33:15;9.07;;;3.08;;
23632;SDS011;11993;48.748;9.166;2023-04-25T05:35:40;17.70;;;9.57;;
23632;SDS011;11993;48.748;9.166;2023-04-25T05:38:06;15.82;;;9.32;;
23632;SDS011;11993;48.748;9.166;2023-04-25T05:40:32;14.38;;;7.75;;
23632;SDS011;11993;48.748;9.166;2023-04-25T05:42:57;4.82;;;3.13;;
23632;SDS011;11993;48.748;9.166;2023-04-25T05:45:23;5.82;;;2.70;;
23632;SDS011;11993;48.748;9.166;2023-04-25T05:47:49;5.57;;;2.70;;
23632;SDS011;11993;48.748;9.166;2023-04-25T05:50:14;4.45;;;2.38;;
23632;SDS011;11993;48.748;9.166;2023-04-25T05:52:40;5.30;;;2.97;;
23632;SDS011;11993;48.748;9.166;2023-04-25T05:55:05;8.60;;;2.70;;
23632;SDS011;11993;48.748;9.166;2023-04-25T05:57:31;7.07;;;3.10;;
23632;SDS011;11993;48.748;9.166;2023-04-25T05:59:57;7.82;;;2.30;;
23632;SDS011;11993;48.748;9.166;2023-04-25T06:02:22;6.82;;;2.63;;
23632;SDS011;11993;48.748;9.166;2023-04-25T06:04:51;4.63;;;2.50;;
23632;SDS011;11993;48.748;9.166;2023-04-25T06:07:17;6.03;;;2.55;;
23632;SDS011;11993;48.748;9.166;2023-04-25T06:09:46;6.78;;;2.80;;
23632;SDS011;11993;48.748;9.166;2023-04-25T06:12:12;2.75;;;2.03;;
23632;SDS011;11993;48.748;9.166;2023-04-25T06:14:37;4.20;;;2.65;;
23632;SDS011;11993;48.748;9.166;2023-04-25T06:17:03;3.45;;;2.75;;
23632;SDS011;11993;48.748;9.166;2023-04-25T06:19:33;5.50;;;2.80;;
23632;SDS011;11993;48.748;9.166;2023-04-25T06:22:00;4.68;;;2.67;;
23632;SDS011;11993;48.748;9.166;2023-04-25T06:24:26;24.27;;;15.63;;
23632;SDS011;11993;48.748;9.166;2023-04-25T06:26:52;33.35;;;21.45;;
23632;SDS011;11993;48.748;9.166;2023-04-25T06:29:17;5.47;;;3.28;;
23632;SDS011;11993;48.748;9.166;2023-04-25T06:31:43;10.70;;;3.92;;
23632;SDS011;11993;48.748;9.166;2023-04-25T06:34:08;7.30;;;3.28;;
23632;SDS011;11993;48.748;9.166;2023-04-25T06:36:34;6.03;;;3.10;;
23632;SDS011;11993;48.748;9.166;2023-04-25T06:39:00;4.07;;;2.83;;
23632;SDS011;11993;48.748;9.166;2023-04-25T06:41:25;5.65;;;2.50;;
23632;SDS011;11993;48.748;9.166;2023-04-25T06:43:51;4.43;;;3.08;;
23632;SDS011;11993;48.748;9.166;2023-04-25T06:46:16;6.90;;;2.92;;
23632;SDS011;11993;48.748;9.166;2023-04-25T06:48:42;4.22;;;2.78;;
23632;SDS011;11993;48.748;9.166;2023-04-25T06:51:07;7.28;;;2.97;;
23632;SDS011;11993;48.748;9.166;2023-04-25T06:53:33;5.38;;;3.35;;
23632;SDS011;11993;48.748;9.166;2023-04-25T06:55:59;3.80;;;2.80;;
23632;SDS011;11993;48.748;9.166;2023-04-25T06:58:24;4.50;;;2.97;;
23632;SDS011;11993;48.748;9.166;2023-04-25T07:00:51;6.57;;;3.28;;
23632;SDS011;11993;48.748;9.166;2023-04-25T07:03:16;4.10;;;2.92;;
23632;SDS011;11993;48.748;9.166;2023-04-25T07:05:42;6.25;;;2.92;;
23632;SDS011;11993;48.748;9.166;2023-04-25T07:08:07;3.45;;;2.70;;
23632;SDS011;11993;48.748;9.166;2023-04-25T07:10:33;7.28;;;3.03;;
23632;SDS011;11993;48.748;9.166;2023-04-25T07:12:58;4.68;;;3.28;;
23632;SDS011;11993;48.748;9.166;2023-04-25T07:15:24;4.90;;;3.38;;
23632;SDS011;11993;48.748;9.166;2023-04-25T07:17:53;11.20;;;3.25;;
23632;SDS011;11993;48.748;9.166;2023-04-25T07:20:18;5.40;;;3.65;;
23632;SDS011;11993;48.748;9.166;2023-04-25T07:22:44;4.78;;;3.20;;
23632;SDS011;11993;48.748;9.166;2023-04-25T07:25:09;5.05;;;3.17;;
23632;SDS011;11993;48.748;9.166;2023-04-25T07:27:35;3.35;;;2.90;;
23632;SDS011;11993;48.748;9.166;2023-04-25T07:30:01;6.45;;;3.30;;
23632;SDS011;11993;48.748;9.166;2023-04-25T07:32:28;4.55;;;3.00;;
23632;SDS011;11993;48.748;9.166;2023-04-25T07:34:53;4.53;;;3.53;;
23632;SDS011;11993;48.748;9.166;2023-04-25T07:37:19;6.15;;;3.30;;
23632;SDS011;11993;48.748;9.166;2023-04-25T07:39:45;4.68;;;3.40;;
23632;SDS011;11993;48.748;9.166;2023-04-25T07:42:11;6.50;;;3.60;;
23632;SDS011;11993;48.748;9.166;2023-04-25T07:44:37;3.90;;;3.35;;
23632;SDS011;11993;48.748;9.166;2023-04-25T07:47:07;5.10;;;3.78;;
23632;SDS011;11993;48.748;9.166;2023-04-25T07:49:36;5.55;;;3.70;;
23632;SDS011;11993;48.748;9.166;2023-04-25T07:52:02;7.85;;;4.70;;
23632;SDS011;11993;48.748;9.166;2023-04-25T07:54:30;5.20;;;3.50;;
23632;SDS011;11993;48.748;9.166;2023-04-25T07:56:56;9.50;;;4.05;;
23632;SDS011;11993;48.748;9.166;2023-04-25T07:59:22;5.05;;;3.88;;
23632;SDS011;11993;48.748;9.166;2023-04-25T08:01:48;6.07;;;3.88;;
23632;SDS011;11993;48.748;9.166;2023-04-25T08:04:13;5.88;;;4.25;;
23632;SDS011;11993;48.748;9.166;2023-04-25T08:06:39;7.38;;;3.92;;
23632;SDS011;11993;48.748;9.166;2023-04-25T08:09:05;4.32;;;3.50;;
23632;SDS011;11993;48.748;9.166;2023-04-25T08:11:31;4.68;;;3.40;;
23632;SDS011;11993;48.748;9.166;2023-04-25T08:13:56;6.05;;;4.03;;
23632;SDS011;11993;48.748;9.166;2023-04-25T08:16:22;7.78;;;3.88;;
23632;SDS011;11993;48.748;9.166;2023-04-25T08:18:56;7.13;;;3.90;;
23632;SDS011;11993;48.748;9.166;2023-04-25T08:21:22;4.78;;;4.18;;
23632;SDS011;11993;48.748;9.166;2023-04-25T08:23:47;7.00;;;4.25;;
23632;SDS011;11993;48.748;9.166;2023-04-25T08:26:13;8.23;;;3.92;;
23632;SDS011;11993;48.748;9.166;2023-04-25T08:28:38;5.20;;;3.97;;
23632;SDS011;11993;48.748;9.166;2023-04-25T08:31:04;10.40;;;4.20;;
23632;SDS011;11993;48.748;9.166;2023-04-25T08:33:29;5.47;;;4.13;;
23632;SDS011;11993;48.748;9.166;2023-04-25T08:35:57;6.50;;;3.75;;
23632;SDS011;11993;48.748;9.166;2023-04-25T08:38:22;7.72;;;4.05;;
23632;SDS011;11993;48.748;9.166;2023-04-25T08:40:49;3.95;;;3.38;;
23632;SDS011;11993;48.748;9.166;2023-04-25T08:43:17;6.05;;;3.88;;
23632;SDS011;11993;48.748;9.166;2023-04-25T08:45:44;7.07;;;4.03;;
23632;SDS011;11993;48.748;9.166;2023-04-25T08:48:11;7.30;;;4.30;;
23632;SDS011;11993;48.748;9.166;2023-04-25T08:50:39;11.93;;;8.30;;
23632;SDS011;11993;48.748;9.166;2023-04-25T08:53:08;7.30;;;4.60;;
23632;SDS011;11993;48.748;9.166;2023-04-25T08:55:41;8.38;;;4.10;;
23632;SDS011;11993;48.748;9.166;2023-04-25T08:58:07;6.32;;;4.25;;
23632;SDS011;11993;48.748;9.166;2023-04-25T09:00:35;5.97;;;3.95;;
23632;SDS011;11993;48.748;9.166;2023-04-25T09:03:00;6.65;;;4.60;;
23632;SDS011;11993;48.748;9.166;2023-04-25T09:05:27;6.30;;;4.38;;
23632;SDS011;11993;48.748;9.166;2023-04-25T09:07:53;7.72;;;5.30;;
23632;SDS011;11993;48.748;9.166;2023-04-25T09:10:19;7.22;;;5.60;;
23632;SDS011;11993;48.748;9.166;2023-04-25T09:12:45;8.10;;;5.78;;
23632;SDS011;11993;48.748;9.166;2023-04-25T09:15:31;9.53;;;5.93;;
23632;SDS011;11993;48.748;9.166;2023-04-25T09:17:57;10.65;;;5.70;;
23632;SDS011;11993;48.748;9.166;2023-04-25T09:20:23;8.55;;;5.45;;
23632;SDS011;11993;48.748;9.166;2023-04-25T09:22:49;9.77;;;5.75;;
23632;SDS011;11993;48.748;9.166;2023-04-25T09:25:33;9.52;;;5.97;;
23632;SDS011;11993;48.748;9.166;2023-04-25T09:28:05;6.90;;;4.95;;
23632;SDS011;11993;48.748;9.166;2023-04-25T09:30:32;7.70;;;5.07;;
23632;SDS011;11993;48.748;9.166;2023-04-25T09:33:06;11.38;;;4.90;;
23632;SDS011;11993;48.748;9.166;2023-04-25T09:35:36;7.47;;;6.28;;
23632;SDS011;11993;48.748;9.166;2023-04-25T09:38:09;8.13;;;4.68;;
23632;SDS011;11993;48.748;9.166;2023-04-25T09:40:39;6.97;;;4.78;;
23632;SDS011;11993;48.748;9.166;2023-04-25T09:43:39;8.65;;;4.25;;
23632;SDS011;11993;48.748;9.166;2023-04-25T09:45:57;5.70;;;4.63;;
23632;SDS011;11993;48.748;9.166;2023-04-25T09:48:25;5.10;;;4.35;;
23632;SDS011;11993;48.748;9.166;2023-04-25T09:51:04;5.05;;;3.28;;
23632;SDS011;11993;48.748;9.166;2023-04-25T09:53:30;4.97;;;3.33;;
23632;SDS011;11993;48.748;9.166;2023-04-25T09:55:58;4.57;;;3.17;;
23632;SDS011;11993;48.748;9.166;2023-04-25T09:58:25;4.80;;;3.42;;
23632;SDS011;11993;48.748;9.166;2023-04-25T10:00:54;5.88;;;3.92;;
23632;SDS011;11993;48.748;9.166;2023-04-25T10:03:24;4.82;;;3.83;;
23632;SDS011;11993;48.748;9.166;2023-04-25T10:05:51;5.45;;;4.15;;
23632;SDS011;11993;48.748;9.166;2023-04-25T10:08:18;4.25;;;2.75;;
23632;SDS011;11993;48.748;9.166;2023-04-25T10:10:45;3.13;;;2.83;;
23632;SDS011;11993;48.748;9.166;2023-04-25T10:13:13;2.97;;;2.30;;
23632;SDS011;11993;48.748;9.166;2023-04-25T10:15:39;2.00;;;1.70;;
23632;SDS011;11993;48.748;9.166;2023-04-25T10:18:06;3.08;;;1.73;;
23632;SDS011;11993;48.748;9.166;2023-04-25T10:20:32;2.65;;;2.13;;
23632;SDS011;11993;48.748;9.166;2023-04-25T10:22:58;2.30;;;1.98;;
23632;SDS011;11993;48.748;9.166;2023-04-25T10:25:38;2.40;;;1.65;;
23632;SDS011;11993;48.748;9.166;2023-04-25T10:28:05;3.53;;;2.20;;
23632;SDS011;11993;48.748;9.166;2023-04-25T10:30:31;3.42;;;1.70;;
23632;SDS011;11993;48.748;9.166;2023-04-25T10:32:58;2.25;;;1.55;;
23632;SDS011;11993;48.748;9.166;2023-04-25T10:35:25;3.42;;;0.90;;
23632;SDS011;11993;48.748;9.166;2023-04-25T10:38:08;1.88;;;1.50;;
23632;SDS011;11993;48.748;9.166;2023-04-25T10:40:35;1.58;;;1.00;;
23632;SDS011;11993;48.748;9.166;2023-04-25T10:46:00;0.95;;;0.90;;
23632;SDS011;11993;48.748;9.166;2023-04-25T10:48:26;1.40;;;1.30;;
23632;SDS011;11993;48.748;9.166;2023-04-25T10:51:10;4.30;;;1.33;;
23632;SDS011;11993;48.748;9.166;2023-04-25T10:53:40;2.35;;;1.30;;
23632;SDS011;11993;48.748;9.166;2023-04-25T10:56:09;3.38;;;1.13;;
23632;SDS011;11993;48.748;9.166;2023-04-25T10:58:46;1.65;;;1.20;;
23632;SDS011;11993;48.748;9.166;2023-04-25T11:01:19;4.20;;;1.50;;
23632;SDS011;11993;48.748;9.166;2023-04-25T11:03:46;3.47;;;1.77;;
23632;SDS011;11993;48.748;9.166;2023-04-25T11:06:20;3.50;;;1.88;;
23632;SDS011;11993;48.748;9.166;2023-04-25T11:08:52;4.15;;;2.05;;
23632;SDS011;11993;48.748;9.166;2023-04-25T11:11:18;3.60;;;2.97;;
23632;SDS011;11993;48.748;9.166;2023-04-25T11:13:44;10.43;;;2.70;;
23632;SDS011;11993;48.748;9.166;2023-04-25T11:16:13;3.33;;;3.03;;
23632;SDS011;11993;48.748;9.166;2023-04-25T11:18:40;3.42;;;2.88;;
23632;SDS011;11993;48.748;9.166;2023-04-25T11:21:07;4.10;;;3.00;;
23632;SDS011;11993;48.748;9.166;2023-04-25T11:23:32;2.78;;;2.40;;
23632;SDS011;11993;48.748;9.166;2023-04-25T11:25:59;3.72;;;2.45;;
23632;SDS011;11993;48.748;9.166;2023-04-25T11:28:26;2.67;;;2.40;;
23632;SDS011;11993;48.748;9.166;2023-04-25T11:30:52;4.57;;;2.83;;
23632;SDS011;11993;48.748;9.166;2023-04-25T11:33:18;4.95;;;2.80;;
23632;SDS011;11993;48.748;9.166;2023-04-25T11:35:48;8.57;;;2.78;;
23632;SDS011;11993;48.748;9.166;2023-04-25T11:38:21;2.67;;;2.47;;
23632;SDS011;11993;48.748;9.166;2023-04-25T11:40:59;2.78;;;2.50;;
23632;SDS011;11993;48.748;9.166;2023-04-25T11:43:25;4.97;;;3.20;;
23632;SDS011;11993;48.748;9.166;2023-04-25T11:45:50;3.20;;;2.47;;
23632;SDS011;11993;48.748;9.166;2023-04-25T11:48:17;7.65;;;3.60;;
23632;SDS011;11993;48.748;9.166;2023-04-25T11:50:44;2.15;;;1.95;;
23632;SDS011;11993;48.748;9.166;2023-04-25T11:53:10;2.90;;;2.60;;
23632;SDS011;11993;48.748;9.166;2023-04-25T11:55:36;3.55;;;2.60;;
23632;SDS011;11993;48.748;9.166;2023-04-25T11:58:02;3.92;;;2.30;;
23632;SDS011;11993;48.748;9.166;2023-04-25T12:00:29;3.35;;;2.53;;
23632;SDS011;11993;48.748;9.166;2023-04-25T12:02:55;5.30;;;2.80;;
23632;SDS011;11993;48.748;9.166;2023-04-25T12:05:27;3.25;;;2.80;;
23632;SDS011;11993;48.748;9.166;2023-04-25T12:07:53;5.43;;;3.88;;
23632;SDS011;11993;48.748;9.166;2023-04-25T12:10:19;5.43;;;3.60;;
23632;SDS011;11993;48.748;9.166;2023-04-25T12:12:46;4.03;;;3.55;;
23632;SDS011;11993;48.748;9.166;2023-04-25T12:15:13;4.55;;;3.63;;
23632;SDS011;11993;48.748;9.166;2023-04-25T12:17:46;4.72;;;3.47;;
23632;SDS011;11993;48.748;9.166;2023-04-25T12:20:14;3.75;;;2.95;;
23632;SDS011;11993;48.748;9.166;2023-04-25T12:22:42;3.88;;;3.40;;
23632;SDS011;11993;48.748;9.166;2023-04-25T12:25:55;5.65;;;3.67;;
23632;SDS011;11993;48.748;9.166;2023-04-25T12:33:30;6.07;;;3.78;;
23632;SDS011;11993;48.748;9.166;2023-04-25T12:36:00;7.75;;;4.43;;
23632;SDS011;11993;48.748;9.166;2023-04-25T12:38:42;5.22;;;3.90;;
23632;SDS011;11993;48.748;9.166;2023-04-25T12:41:08;6.50;;;4.53;;
23632;SDS011;11993;48.748;9.166;2023-04-25T12:43:37;8.75;;;4.90;;
23632;SDS011;11993;48.748;9.166;2023-04-25T12:46:02;6.53;;;4.35;;
23632;SDS011;11993;48.748;9.166;2023-04-25T12:48:28;6.25;;;4.65;;
23632;SDS011;11993;48.748;9.166;2023-04-25T12:50:53;6.75;;;4.53;;
23632;SDS011;11993;48.748;9.166;2023-04-25T12:53:20;8.13;;;4.68;;
23632;SDS011;11993;48.748;9.166;2023-04-25T12:55:47;7.78;;;5.20;;
23632;SDS011;11993;48.748;9.166;2023-04-25T12:58:14;5.40;;;4.40;;
23632;SDS011;11993;48.748;9.166;2023-04-25T13:00:43;6.82;;;5.18;;
23632;SDS011;11993;48.748;9.166;2023-04-25T13:03:09;7.97;;;4.75;;
23632;SDS011;11993;48.748;9.166;2023-04-25T13:05:38;5.53;;;4.40;;
23632;SDS011;11993;48.748;9.166;2023-04-25T13:08:04;18.65;;;5.43;;
23632;SDS011;11993;48.748;9.166;2023-04-25T13:10:30;8.48;;;5.05;;
23632;SDS011;11993;48.748;9.166;2023-04-25T13:12:56;10.80;;;4.28;;
23632;SDS011;11993;48.748;9.166;2023-04-25T13:15:21;8.90;;;5.57;;
23632;SDS011;11993;48.748;9.166;2023-04-25T13:17:47;7.72;;;5.20;;
23632;SDS011;11993;48.748;9.166;2023-04-25T13:20:13;12.25;;;5.35;;
23632;SDS011;11993;48.748;9.166;2023-04-25T13:22:40;7.45;;;5.13;;
23632;SDS011;11993;48.748;9.166;2023-04-25T13:25:07;7.55;;;4.97;;
23632;SDS011;11993;48.748;9.166;2023-04-25T13:27:33;6.78;;;4.80;;
23632;SDS011;11993;48.748;9.166;2023-04-25T13:30:05;9.02;;;4.63;;
23632;SDS011;11993;48.748;9.166;2023-04-25T13:32:34;6.82;;;4.25;;
23632;SDS011;11993;48.748;9.166;2023-04-25T13:35:03;8.27;;;5.75;;
23632;SDS011;11993;48.748;9.166;2023-04-25T13:37:30;9.88;;;5.40;;
23632;SDS011;11993;48.748;9.166;2023-04-25T13:39:58;7.30;;;4.75;;
23632;SDS011;11993;48.748;9.166;2023-04-25T13:42:25;8.90;;;5.32;;
23632;SDS011;11993;48.748;9.166;2023-04-25T13:44:51;6.72;;;5.10;;
23632;SDS011;11993;48.748;9.166;2023-04-25T13:47:16;10.63;;;5.20;;
23632;SDS011;11993;48.748;9.166;2023-04-25T13:49:42;7.20;;;4.75;;
23632;SDS011;11993;48.748;9.166;2023-04-25T13:52:07;8.88;;;5.97;;
23632;SDS011;11993;48.748;9.166;2023-04-25T13:54:33;7.38;;;5.57;;
23632;SDS011;11993;48.748;9.166;2023-04-25T13:56:58;7.85;;;5.47;;
23632;SDS011;11993;48.748;9.166;2023-04-25T13:59:27;9.88;;;5.95;;
23632;SDS011;11993;48.748;9.166;2023-04-25T14:01:52;9.98;;;6.90;;
23632;SDS011;11993;48.748;9.166;2023-04-25T14:04:18;10.25;;;6.05;;
23632;SDS011;11993;48.748;9.166;2023-04-25T14:06:43;10.85;;;6.88;;
23632;SDS011;11993;48.748;9.166;2023-04-25T14:09:10;9.50;;;6.20;;
23632;SDS011;11993;48.748;9.166;2023-04-25T14:11:38;11.45;;;6.47;;
23632;SDS011;11993;48.748;9.166;2023-04-25T14:14:03;8.40;;;6.93;;
23632;SDS011;11993;48.748;9.166;2023-04-25T14:16:29;12.10;;;6.25;;
23632;SDS011;11993;48.748;9.166;2023-04-25T14:18:57;11.18;;;6.07;;
23632;SDS011;11993;48.748;9.166;2023-04-25T14:21:23;10.13;;;6.10;;
23632;SDS011;11993;48.748;9.166;2023-04-25T14:23:49;10.27;;;6.07;;
23632;SDS011;11993;48.748;9.166;2023-04-25T14:26:14;7.13;;;5.60;;
23632;SDS011;11993;48.748;9.166;2023-04-25T14:28:41;7.85;;;5.25;;
23632;SDS011;11993;48.748;9.166;2023-04-25T14:31:07;9.88;;;6.28;;
23632;SDS011;11993;48.748;9.166;2023-04-25T14:33:32;9.68;;;5.80;;
23632;SDS011;11993;48.748;9.166;2023-04-25T14:35:58;8.55;;;5.78;;
23632;SDS011;11993;48.748;9.166;2023-04-25T14:38:23;10.77;;;6.05;;
23632;SDS011;11993;48.748;9.166;2023-04-25T14:40:50;7.05;;;5.55;;
23632;SDS011;11993;48.748;9.166;2023-04-25T14:43:16;7.60;;;4.95;;
23632;SDS011;11993;48.748;9.166;2023-04-25T14:45:42;8.10;;;5.20;;
23632;SDS011;11993;48.748;9.166;2023-04-25T14:48:07;8.57;;;4.93;;
23632;SDS011;11993;48.748;9.166;2023-04-25T14:50:36;8.98;;;4.50;;
23632;SDS011;11993;48.748;9.166;2023-04-25T14:53:01;4.45;;;3.90;;